Terminal Aerodrome Forecast
Issued by NWS

Home | Current Version | Previous Version | Text Only | Print | Product List | Glossary Off
Versions: 1 2 3 4 5 6 7 8 9 10 11 12 13 14 15 16 17 18 19 20

000
FTUS43 KBIS 212200 AAD
TAFDIK
TAF AMD
KDIK 212259Z 2123/2218 34011KT P6SM SCT009 BKN015
     FM220300 01009KT 5SM BR SCT005 OVC015
     FM220600 34005KT 3SM BR BKN007 OVC011
     FM221400 02005KT 5SM BR BKN015=

USA.gov is the U.S. government's official web portal to all federal, state and local government web resources and services.